Time;durP1;ratioP1;P1;durP2;ratioP2;P2;SDS_P1;SDS_P2;PMS_P1;PMS_P2;Temp;Humidity;BMP_temperature;BMP_pressure;BME280_temperature;BME280_humidity;BME280_pressure;Samples;Min_cycle;Max_cycle;Signal;HPM_P1;HPM_P2
2023/03/21 00:00:33;;;;;;;28.30;14.32;;;;;;;8.15;100.00;101535.88;5073094;28;20044;-68
2023/03/21 00:02:58;;;;;;;27.25;13.57;;;;;;;8.10;100.00;101524.38;5073303;28;20036;-66
2023/03/21 00:05:24;;;;;;;27.00;14.13;;;;;;;8.00;100.00;101515.34;5073101;28;20475;-67
2023/03/21 00:07:50;;;;;;;28.05;14.70;;;;;;;7.97;100.00;101510.88;5073048;28;20043;-66
2023/03/21 00:10:16;;;;;;;27.35;14.90;;;;;;;8.00;100.00;101520.59;5073470;28;20028;-66
2023/03/21 00:12:41;;;;;;;25.95;13.75;;;;;;;7.99;100.00;101519.72;5072776;28;20041;-66
2023/03/21 00:15:09;;;;;;;28.17;14.70;;;;;;;7.97;100.00;101524.03;5072953;28;20020;-67
2023/03/21 00:17:35;;;;;;;29.50;14.98;;;;;;;7.97;100.00;101512.63;5073145;28;20107;-67
2023/03/21 00:20:05;;;;;;;27.85;15.32;;;;;;;7.97;100.00;101513.50;5071622;28;20166;-67
2023/03/21 00:22:30;;;;;;;27.70;14.88;;;;;;;7.98;100.00;101506.47;5073084;28;20111;-67
2023/03/21 00:24:56;;;;;;;26.95;14.50;;;;;;;7.99;100.00;101498.66;5072916;28;20104;-68
2023/03/21 00:27:21;;;;;;;27.17;14.55;;;;;;;8.02;100.00;101498.72;5072745;28;20029;-68
2023/03/21 00:29:48;;;;;;;28.15;14.90;;;;;;;8.01;100.00;101502.19;5072650;28;20043;-66
2023/03/21 00:32:14;;;;;;;26.55;14.18;;;;;;;8.08;100.00;101503.25;5072952;28;20043;-67
2023/03/21 00:34:43;;;;;;;26.83;14.50;;;;;;;8.06;100.00;101497.03;5072668;28;20087;-67
2023/03/21 00:37:13;;;;;;;26.50;14.20;;;;;;;8.08;100.00;101489.19;5072666;28;20040;-67
2023/03/21 00:39:38;;;;;;;26.35;13.85;;;;;;;8.08;100.00;101489.19;5072748;28;20029;-67
2023/03/21 00:42:04;;;;;;;27.88;13.73;;;;;;;8.08;100.00;101486.56;5072622;28;20360;-67
2023/03/21 00:44:31;;;;;;;26.17;13.32;;;;;;;8.09;100.00;101488.34;5072540;28;20029;-66
2023/03/21 00:46:57;;;;;;;26.15;12.82;;;;;;;8.10;100.00;101480.47;5072673;28;20024;-66
2023/03/21 00:49:22;;;;;;;25.88;12.85;;;;;;;8.11;100.00;101471.72;5072511;28;20054;-66
2023/03/21 00:51:50;;;;;;;26.65;13.43;;;;;;;8.13;100.00;101470.00;5072498;28;20031;-66
2023/03/21 00:54:16;;;;;;;25.15;13.30;;;;;;;8.13;100.00;101469.13;5072885;28;20029;-66
2023/03/21 00:56:42;;;;;;;25.25;12.40;;;;;;;8.15;100.00;101470.03;5072471;28;20048;-65
2023/03/21 00:59:07;;;;;;;24.77;12.35;;;;;;;8.15;100.00;101467.41;5071582;28;20056;-65
2023/03/21 01:01:33;;;;;;;26.50;12.73;;;;;;;8.14;100.00;101465.63;5072486;28;20038;-66
2023/03/21 01:04:12;;;;;;;24.75;11.32;;;;;;;8.19;100.00;101464.88;5072397;28;20072;-66
2023/03/21 01:06:40;;;;;;;25.05;11.27;;;;;;;8.18;100.00;101454.31;5072385;28;20032;-66
2023/03/21 01:09:26;;;;;;;25.35;11.60;;;;;;;8.17;100.00;101456.06;5072304;28;20040;-66
2023/03/21 01:11:52;;;;;;;25.20;11.35;;;;;;;8.17;100.00;101455.19;5069754;28;20463;-67
2023/03/21 01:14:20;;;;;;;25.92;11.95;;;;;;;8.17;100.00;101444.66;5072284;28;20049;-66
2023/03/21 01:16:46;;;;;;;25.65;10.95;;;;;;;8.17;100.00;101440.28;5072200;28;20025;-67
2023/03/21 01:19:15;;;;;;;24.67;10.85;;;;;;;8.19;100.00;101440.31;5072530;28;20082;-66
2023/03/21 01:21:42;;;;;;;24.45;10.70;;;;;;;8.18;100.00;101430.63;5068290;28;20025;-65
2023/03/21 01:24:07;;;;;;;23.67;10.27;;;;;;;8.19;100.00;101438.53;5072127;28;20134;-66
2023/03/21 01:26:33;;;;;;;24.40;10.63;;;;;;;8.19;100.00;101438.53;5072249;28;20598;-66
2023/03/21 01:28:58;;;;;;;23.90;10.32;;;;;;;8.19;100.00;101432.41;5072395;28;20470;-66
2023/03/21 01:31:24;;;;;;;23.73;10.20;;;;;;;8.20;100.00;101434.19;5070852;28;20387;-65
2023/03/21 01:33:49;;;;;;;24.70;10.15;;;;;;;8.22;100.00;101431.59;5072044;28;20067;-66
2023/03/21 01:36:18;;;;;;;25.13;10.30;;;;;;;8.22;100.00;101427.19;5071016;28;20036;-66
2023/03/21 01:38:44;;;;;;;25.83;10.05;;;;;;;8.24;100.00;101428.13;5068262;28;20487;-66
2023/03/21 01:41:37;;;;;;;24.00;9.93;;;;;;;8.27;100.00;101430.84;5070674;28;20033;-66
2023/03/21 01:44:04;;;;;;;22.90;10.00;;;;;;;8.22;100.00;101410.53;5069524;28;20395;-66
2023/03/21 01:46:43;;;;;;;24.70;10.38;;;;;;;8.25;100.00;101419.38;5072117;28;20154;-65
2023/03/21 01:49:17;;;;;;;22.90;9.93;;;;;;;8.27;100.00;101419.41;5072190;28;20040;-66
2023/03/21 01:51:50;;;;;;;23.27;9.80;;;;;;;8.26;100.00;101418.53;5067991;28;20501;-67
2023/03/21 01:54:23;;;;;;;26.20;10.50;;;;;;;8.25;100.00;101418.50;5068435;28;20031;-66
2023/03/21 01:56:50;;;;;;;23.75;10.07;;;;;;;8.26;100.00;101413.25;5068703;28;20028;-66
2023/03/21 01:59:21;;;;;;;23.77;10.20;;;;;;;8.23;100.00;101410.56;5072019;28;20473;-70
2023/03/21 02:01:49;;;;;;;24.40;10.05;;;;;;;8.23;100.00;101402.66;5068400;28;20036;-70
2023/03/21 02:04:21;;;;;;;23.73;10.02;;;;;;;8.21;100.00;101404.34;5070567;28;20051;-70
2023/03/21 02:06:55;;;;;;;22.87;9.90;;;;;;;8.20;100.00;101392.06;5068609;28;20055;-70
2023/03/21 02:09:24;;;;;;;24.17;9.95;;;;;;;8.20;100.00;101403.47;5069096;28;20298;-70
2023/03/21 02:11:50;;;;;;;25.70;10.68;;;;;;;8.20;100.00;101394.69;5074017;28;20060;-70
2023/03/21 02:14:18;;;;;;;23.63;10.27;;;;;;;8.20;100.00;101392.06;5075158;28;20126;-70
2023/03/21 02:16:49;;;;;;;24.38;10.30;;;;;;;8.19;100.00;101392.91;5070309;28;20505;-70
2023/03/21 02:19:29;;;;;;;23.97;10.17;;;;;;;8.20;100.00;101381.50;5071668;28;20036;-70
2023/03/21 02:22:20;;;;;;;25.30;10.75;;;;;;;8.17;100.00;101381.44;5073146;28;20117;-70
2023/03/21 02:25:23;;;;;;;24.05;10.35;;;;;;;8.19;100.00;101371.81;5071506;28;20040;-71
2023/03/21 02:28:27;;;;;;;23.45;10.05;;;;;;;8.13;100.00;101364.66;5072060;28;20071;-71
2023/03/21 02:30:55;;;;;;;24.50;10.52;;;;;;;8.12;100.00;101372.53;5052938;28;20052;-70
2023/03/21 02:33:40;;;;;;;24.95;10.35;;;;;;;8.13;100.00;101358.53;5075375;28;20429;-70
2023/03/21 02:36:13;;;;;;;24.38;10.15;;;;;;;8.10;100.00;101363.72;5075080;28;20034;-70
2023/03/21 02:39:11;;;;;;;24.35;10.25;;;;;;;8.11;100.00;101365.47;5075090;28;20515;-70
2023/03/21 02:42:07;;;;;;;25.90;10.10;;;;;;;8.10;100.00;101367.25;5074361;28;20377;-70
2023/03/21 02:45:09;;;;;;;24.60;10.52;;;;;;;8.10;100.00;101358.47;5073439;28;20025;-70
2023/03/21 02:47:41;;;;;;;23.30;9.73;;;;;;;8.09;100.00;101357.56;5067817;28;20040;-70
2023/03/21 02:50:14;;;;;;;24.00;9.70;;;;;;;8.09;100.00;101356.66;5074664;28;20315;-70
2023/03/21 02:52:41;;;;;;;;;;;;;;;8.16;100.00;101355.97;5074959;28;20034;-70
2023/03/21 02:55:14;;;;;;;24.02;10.20;;;;;;;8.11;100.00;101350.59;5074988;28;20770;-70
2023/03/21 02:57:42;;;;;;;23.73;10.02;;;;;;;8.13;100.00;101350.63;5074719;28;20124;-66
2023/03/21 03:00:11;;;;;;;24.95;10.10;;;;;;;8.09;100.00;101348.78;5074336;28;20123;-66
2023/03/21 03:02:38;;;;;;;23.98;10.20;;;;;;;8.08;100.00;101341.72;5073390;28;20677;-65
2023/03/21 03:05:16;;;;;;;25.02;10.15;;;;;;;8.06;100.00;101340.81;5074317;28;20032;-66
2023/03/21 03:07:51;;;;;;;24.27;10.32;;;;;;;7.92;100.00;101344.03;5070203;28;20032;-65
2023/03/21 03:10:29;;;;;;;23.98;10.80;;;;;;;7.82;100.00;101336.72;5070777;28;20026;-65
2023/03/21 03:13:23;;;;;;;26.50;11.45;;;;;;;7.73;100.00;101336.53;5071623;28;20045;-66
2023/03/21 03:16:18;;;;;;;25.00;11.55;;;;;;;7.72;100.00;101333.00;5070975;28;20052;-66
2023/03/21 03:18:58;;;;;;;23.77;10.93;;;;;;;7.73;100.00;101340.03;5070243;28;20085;-65
2023/03/21 03:21:46;;;;;;;26.90;11.73;;;;;;;7.75;100.00;101335.72;5071510;28;20483;-65
2023/03/21 03:24:19;;;;;;;25.23;11.32;;;;;;;7.78;100.00;101333.16;5073414;28;20074;-66
2023/03/21 03:26:54;;;;;;;25.45;11.43;;;;;;;7.79;100.00;101326.13;5070170;28;20103;-66
2023/03/21 03:29:22;;;;;;;25.55;11.30;;;;;;;7.83;100.00;101333.25;5070786;28;20028;-66
2023/03/21 03:31:54;;;;;;;24.02;10.77;;;;;;;7.84;100.00;101327.16;5073992;28;20036;-66
2023/03/21 03:34:22;;;;;;;24.50;11.20;;;;;;;7.87;100.00;101319.31;5073723;28;20027;-66
2023/03/21 03:36:55;;;;;;;25.52;10.95;;;;;;;7.84;100.00;101317.50;5073581;28;20017;-67
2023/03/21 03:39:25;;;;;;;23.65;10.80;;;;;;;7.88;100.00;101325.47;5073867;28;20031;-67
2023/03/21 03:41:59;;;;;;;23.52;10.13;;;;;;;7.88;100.00;101320.19;5074036;28;20028;-66
2023/03/21 03:44:27;;;;;;;26.08;11.15;;;;;;;7.92;100.00;101317.69;5073566;28;20028;-66
2023/03/21 03:47:00;;;;;;;24.10;10.60;;;;;;;7.98;100.00;101317.81;5073416;28;20547;-66
2023/03/21 03:49:31;;;;;;;26.58;10.65;;;;;;;7.92;100.00;101312.44;5073863;28;20442;-66
2023/03/21 03:52:15;;;;;;;26.40;11.38;;;;;;;7.85;100.00;101308.75;5073563;28;20048;-66
2023/03/21 03:54:44;;;;;;;28.02;11.85;;;;;;;7.83;100.00;101304.31;5073490;28;20032;-66
2023/03/21 03:57:12;;;;;;;24.70;10.82;;;;;;;7.83;100.00;101304.31;5073290;28;20425;-65
2023/03/21 03:59:40;;;;;;;26.33;11.07;;;;;;;7.85;100.00;101297.34;5073440;28;20036;-66
2023/03/21 04:02:06;;;;;;;26.02;11.20;;;;;;;7.86;100.00;101304.38;5073691;28;20433;-67
2023/03/21 04:04:31;;;;;;;27.40;12.13;;;;;;;7.87;100.00;101307.91;5073045;28;20028;-66
2023/03/21 04:06:57;;;;;;;26.27;11.75;;;;;;;7.88;100.00;101307.94;5073056;28;20082;-66
2023/03/21 04:09:24;;;;;;;25.30;11.68;;;;;;;7.91;100.00;101307.13;5073319;28;20028;-66
2023/03/21 04:11:49;;;;;;;25.80;11.23;;;;;;;7.91;100.00;101293.97;5073032;28;20039;-66
2023/03/21 04:14:15;;;;;;;26.27;11.48;;;;;;;7.91;100.00;101294.84;5072888;28;20052;-66
2023/03/21 04:16:40;;;;;;;24.85;11.35;;;;;;;7.93;100.00;101297.50;5073350;28;20021;-66
2023/03/21 04:19:06;;;;;;;25.17;11.82;;;;;;;7.93;100.00;101287.84;5072805;28;20024;-68
2023/03/21 04:21:31;;;;;;;24.80;10.77;;;;;;;7.95;100.00;101293.16;5073019;28;20036;-65
2023/03/21 04:23:57;;;;;;;26.02;11.45;;;;;;;7.98;100.00;101295.84;5073037;28;20028;-66
2023/03/21 04:26:23;;;;;;;24.90;10.43;;;;;;;7.96;100.00;101287.91;5072779;28;20021;-70
2023/03/21 04:28:50;;;;;;;25.92;11.00;;;;;;;7.97;100.00;101291.47;5073184;28;20356;-70
2023/03/21 04:31:16;;;;;;;25.40;11.38;;;;;;;7.98;100.00;101280.97;5073010;28;20032;-70
2023/03/21 04:33:42;;;;;;;26.05;10.85;;;;;;;8.00;100.00;101284.50;5072562;28;20028;-70
2023/03/21 04:36:17;;;;;;;25.42;10.65;;;;;;;7.99;100.00;101285.38;5072869;28;20039;-70
2023/03/21 04:38:47;;;;;;;26.40;11.27;;;;;;;7.99;100.00;101284.47;5072831;28;20483;-70
2023/03/21 04:41:12;;;;;;;24.63;11.10;;;;;;;8.02;100.00;101272.28;5072574;28;20097;-70
2023/03/21 04:43:37;;;;;;;25.45;11.02;;;;;;;8.03;100.00;101271.41;5072544;28;20028;-71
2023/03/21 04:46:03;;;;;;;25.15;11.00;;;;;;;8.05;100.00;101263.53;5072968;28;20063;-70
2023/03/21 04:48:29;;;;;;;24.65;11.13;;;;;;;8.03;100.00;101267.91;5072491;28;20033;-70
2023/03/21 04:50:54;;;;;;;24.30;10.20;;;;;;;8.05;100.00;101270.56;5072534;28;20029;-70
2023/03/21 04:53:19;;;;;;;25.00;11.43;;;;;;;8.02;100.00;101267.00;5072728;28;20021;-71
2023/03/21 04:55:45;;;;;;;26.83;11.50;;;;;;;8.04;100.00;101259.16;5072507;28;20037;-71
2023/03/21 04:58:10;;;;;;;27.08;10.93;;;;;;;8.03;100.00;101258.25;5072611;28;20032;-70
2023/03/21 05:00:37;;;;;;;25.70;11.80;;;;;;;8.05;100.00;101263.53;5072392;28;20033;-70
2023/03/21 05:03:07;;;;;;;26.05;10.40;;;;;;;8.05;100.00;101252.13;5072577;28;20037;-70
2023/03/21 05:05:34;;;;;;;28.58;11.55;;;;;;;8.05;100.00;101254.75;5072499;28;20032;-66
2023/03/21 05:08:00;;;;;;;24.95;10.55;;;;;;;8.05;100.00;101255.63;5072526;28;20021;-66
2023/03/21 05:10:25;;;;;;;26.27;10.93;;;;;;;8.06;100.00;101252.16;5071065;28;20029;-66
2023/03/21 05:12:51;;;;;;;24.90;10.98;;;;;;;8.07;100.00;101247.75;5072479;28;20048;-66
2023/03/21 05:15:17;;;;;;;27.40;10.43;;;;;;;8.08;100.00;101253.09;5072345;28;20075;-66
2023/03/21 05:17:42;;;;;;;25.38;10.68;;;;;;;8.07;100.00;101251.31;5072191;28;20055;-66
2023/03/21 05:20:10;;;;;;;25.90;11.10;;;;;;;8.07;100.00;101245.13;5071332;28;20040;-66
2023/03/21 05:22:39;;;;;;;24.67;10.50;;;;;;;8.05;100.00;101245.09;5072174;28;20025;-66
2023/03/21 05:25:09;;;;;;;24.27;9.82;;;;;;;8.06;100.00;101243.38;5072450;28;20379;-66
2023/03/21 05:27:35;;;;;;;25.05;10.95;;;;;;;8.07;100.00;101251.31;5072135;28;20082;-66
2023/03/21 05:30:07;;;;;;;24.55;10.30;;;;;;;8.10;100.00;101247.84;5072296;28;20436;-66
2023/03/21 05:32:33;;;;;;;24.58;10.52;;;;;;;8.12;100.00;101248.75;5072016;28;20021;-66
2023/03/21 05:34:58;;;;;;;24.83;10.38;;;;;;;8.11;100.00;101249.63;5072040;28;20112;-66
2023/03/21 05:37:24;;;;;;;24.50;10.05;;;;;;;8.11;100.00;101241.72;5072225;28;20036;-66
2023/03/21 05:39:50;;;;;;;24.08;10.23;;;;;;;8.12;100.00;101251.41;5072033;28;20094;-66
2023/03/21 05:42:17;;;;;;;25.63;10.18;;;;;;;8.11;100.00;101252.25;5072172;28;20039;-66
2023/03/21 05:44:42;;;;;;;24.40;10.25;;;;;;;8.10;100.00;101239.97;5072194;28;20103;-65
2023/03/21 05:47:08;;;;;;;25.20;10.45;;;;;;;8.09;100.00;101244.31;5075128;28;20116;-66
2023/03/21 05:49:33;;;;;;;25.67;10.43;;;;;;;8.11;100.00;101244.34;5075772;28;20029;-70
2023/03/21 05:51:58;;;;;;;23.85;10.13;;;;;;;8.11;100.00;101245.25;5075977;28;20036;-66
2023/03/21 05:54:24;;;;;;;25.48;10.68;;;;;;;8.08;100.00;101247.84;5075900;28;20020;-65
2023/03/21 05:56:49;;;;;;;23.83;9.95;;;;;;;8.09;100.00;101240.81;5075964;28;20474;-65
2023/03/21 05:59:15;;;;;;;25.33;10.30;;;;;;;8.10;100.00;101237.31;5075590;28;20029;-66
2023/03/21 06:01:40;;;;;;;25.50;9.85;;;;;;;8.12;100.00;101251.41;5075461;28;20035;-67
2023/03/21 06:04:06;;;;;;;25.48;10.63;;;;;;;8.12;100.00;101246.13;5075631;28;20429;-66
2023/03/21 06:06:31;;;;;;;24.52;9.55;;;;;;;8.13;100.00;101246.16;5075419;28;20021;-66
2023/03/21 06:08:57;;;;;;;24.80;9.55;;;;;;;8.17;100.00;101245.38;5075370;28;20044;-66
2023/03/21 06:11:29;;;;;;;23.08;9.35;;;;;;;8.20;100.00;101241.94;5075432;28;20073;-65
2023/03/21 06:13:54;;;;;;;24.20;9.00;;;;;;;8.23;100.00;101241.97;5075113;28;20385;-66
2023/03/21 06:16:20;;;;;;;25.77;9.43;;;;;;;8.26;100.00;101246.44;5075208;28;20163;-66
2023/03/21 06:18:45;;;;;;;24.20;9.30;;;;;;;8.32;100.00;101242.16;5075523;28;20479;-66
2023/03/21 06:21:11;;;;;;;23.27;8.70;;;;;;;8.40;100.00;101252.84;5075115;28;20037;-66
2023/03/21 06:23:36;;;;;;;22.75;8.75;;;;;;;8.41;100.00;101244.09;5070889;28;20036;-70
2023/03/21 06:26:03;;;;;;;25.02;8.95;;;;;;;8.42;100.00;101250.22;5070818;28;20028;-71
2023/03/21 06:28:29;;;;;;;25.30;9.10;;;;;;;8.46;100.00;101253.00;5069225;28;20195;-69
2023/03/21 06:30:55;;;;;;;24.85;8.90;;;;;;;8.47;100.00;101248.63;5078158;28;20033;-70
2023/03/21 06:33:20;;;;;;;22.10;8.65;;;;;;;8.45;100.00;101255.63;5074708;28;20374;-71
2023/03/21 06:35:56;;;;;;;23.50;8.57;;;;;;;8.34;100.00;101253.63;5066939;28;20033;-71
2023/03/21 06:38:22;;;;;;;24.50;9.35;;;;;;;8.19;100.00;101258.56;5070924;28;20430;-71
2023/03/21 06:40:48;;;;;;;23.33;8.80;;;;;;;8.08;100.00;101267.97;5076430;28;20032;-71
2023/03/21 06:43:15;;;;;;;23.20;8.32;;;;;;;7.98;100.00;101262.53;5070025;28;20082;-70
2023/03/21 06:45:41;;;;;;;23.73;9.25;;;;;;;7.85;100.00;101268.38;5069337;28;20105;-70
2023/03/21 06:48:06;;;;;;;24.30;9.80;;;;;;;7.85;100.00;101263.13;5071909;28;20101;-71
2023/03/21 06:50:32;;;;;;;25.17;9.85;;;;;;;7.75;100.00;101267.28;5071128;28;20083;-71
2023/03/21 06:52:58;;;;;;;25.45;10.38;;;;;;;7.74;100.00;101264.63;5065051;28;20530;-71
2023/03/21 06:55:25;;;;;;;25.48;11.02;;;;;;;7.72;100.00;101261.03;5066485;28;20062;-71
2023/03/21 06:57:52;;;;;;;27.92;11.00;;;;;;;7.68;100.00;101260.97;5068427;28;20132;-71
2023/03/21 07:00:18;;;;;;;26.13;11.05;;;;;;;7.69;100.00;101267.16;5063689;28;20037;-71
2023/03/21 07:02:44;;;;;;;26.77;11.57;;;;;;;7.67;100.00;101264.50;5071158;28;20028;-70
2023/03/21 07:05:09;;;;;;;26.58;11.40;;;;;;;7.70;100.00;101262.78;5071816;28;20025;-70
2023/03/21 07:07:35;;;;;;;25.90;10.02;;;;;;;7.66;100.00;101267.09;5070514;28;20026;-70
2023/03/21 07:10:01;;;;;;;24.83;10.38;;;;;;;7.68;100.00;101275.91;5077479;28;20032;-69
2023/03/21 07:12:26;;;;;;;25.85;10.80;;;;;;;7.67;100.00;101276.75;5072771;28;20392;-70
2023/03/21 07:14:51;;;;;;;28.67;11.07;;;;;;;7.67;100.00;101272.38;5070242;28;20028;-69
2023/03/21 07:17:17;;;;;;;27.73;11.52;;;;;;;7.71;100.00;101277.72;5073873;28;20475;-69
2023/03/21 07:19:42;;;;;;;26.05;11.50;;;;;;;7.72;100.00;101282.09;5066045;28;20420;-69
2023/03/21 07:22:07;;;;;;;27.05;11.80;;;;;;;7.73;100.00;101286.53;5066653;28;20029;-73
2023/03/21 07:24:33;;;;;;;27.08;12.05;;;;;;;7.75;100.00;101282.19;5073021;28;20479;-70
2023/03/21 07:26:58;;;;;;;26.98;11.65;;;;;;;7.74;100.00;101280.41;5070675;28;20082;-71
2023/03/21 07:29:24;;;;;;;26.58;11.82;;;;;;;7.74;100.00;101283.03;5066739;28;20495;-71
2023/03/21 07:31:49;;;;;;;28.73;12.57;;;;;;;7.76;100.00;101292.75;5067358;28;20065;-70
2023/03/21 07:34:16;;;;;;;31.17;13.50;;;;;;;7.75;100.00;101293.59;5070667;28;20059;-71
2023/03/21 07:36:41;;;;;;;31.00;13.80;;;;;;;7.73;100.00;101283.88;5072913;28;20041;-71
2023/03/21 07:39:07;;;;;;;27.95;13.73;;;;;;;7.77;100.00;101285.75;5067377;28;20031;-69
2023/03/21 07:41:32;;;;;;;29.75;13.30;;;;;;;7.76;100.00;101284.88;5067556;28;20051;-70
2023/03/21 07:43:58;;;;;;;31.60;14.18;;;;;;;7.78;100.00;101282.28;5069570;28;20384;-69
2023/03/21 07:46:23;;;;;;;28.88;14.13;;;;;;;7.79;100.00;101282.31;5066801;28;20060;-71
2023/03/21 07:48:49;;;;;;;31.85;15.40;;;;;;;7.81;100.00;101279.69;5067535;28;20028;-70
2023/03/21 07:51:14;;;;;;;31.73;15.60;;;;;;;7.83;100.00;101283.25;5070667;28;20350;-69
2023/03/21 07:53:44;;;;;;;33.58;15.98;;;;;;;7.83;100.00;101273.63;5069143;28;20509;-68
2023/03/21 07:56:09;;;;;;;33.08;16.75;;;;;;;7.84;100.00;101270.13;5065848;28;20085;-70
2023/03/21 07:58:35;;;;;;;32.03;16.17;;;;;;;7.85;100.00;101266.63;5073454;28;20033;-71
2023/03/21 08:01:01;;;;;;;34.42;16.60;;;;;;;7.87;100.00;101269.31;5060828;28;20037;-68
2023/03/21 08:03:28;;;;;;;38.35;18.25;;;;;;;7.93;100.00;101256.25;5069566;28;20028;-68
2023/03/21 08:05:53;;;;;;;33.50;17.75;;;;;;;7.95;100.00;101259.84;5075447;28;20475;-68
2023/03/21 08:08:19;;;;;;;34.22;17.75;;;;;;;7.95;100.00;101254.56;5067265;28;20154;-68
2023/03/21 08:10:44;;;;;;;33.45;16.60;;;;;;;8.00;100.00;101247.66;5078668;28;20028;-72
2023/03/21 08:13:10;;;;;;;34.33;17.48;;;;;;;8.02;100.00;101251.22;5067971;28;20041;-69
2023/03/21 08:15:36;;;;;;;33.22;17.50;;;;;;;8.03;100.00;101249.47;5066862;28;20434;-69
2023/03/21 08:18:02;;;;;;;35.03;18.48;;;;;;;8.12;100.00;101246.13;5065087;28;20017;-70
2023/03/21 08:20:27;;;;;;;35.13;19.10;;;;;;;8.15;100.00;101239.16;5075061;28;20043;-70
2023/03/21 08:22:53;;;;;;;36.08;18.80;;;;;;;8.13;100.00;101232.13;5064721;28;20074;-69
2023/03/21 08:25:20;;;;;;;37.47;18.58;;;;;;;8.10;100.00;101237.31;5068798;28;20497;-69
2023/03/21 08:27:47;;;;;;;34.70;18.42;;;;;;;8.09;100.00;101225.88;5072392;28;20539;-67
2023/03/21 08:30:15;;;;;;;33.72;18.17;;;;;;;8.08;100.00;101229.41;5060670;28;20027;-66
2023/03/21 08:32:41;;;;;;;34.65;17.38;;;;;;;8.08;100.00;101228.50;5067759;28;20357;-68
2023/03/21 08:35:09;;;;;;;34.35;16.48;;;;;;;8.00;100.00;101230.97;5066394;28;20082;-69
2023/03/21 08:37:39;;;;;;;34.03;17.65;;;;;;;8.04;100.00;101232.81;5067929;28;20074;-66
2023/03/21 08:40:10;;;;;;;31.98;16.33;;;;;;;8.01;100.00;101228.38;5062265;28;20028;-67
2023/03/21 08:42:36;;;;;;;31.33;15.38;;;;;;;7.97;100.00;101236.19;5067426;28;20028;-67
2023/03/21 08:45:03;;;;;;;31.38;15.23;;;;;;;7.96;100.00;101230.00;5067793;28;20028;-67
2023/03/21 08:47:29;;;;;;;30.00;14.32;;;;;;;7.95;100.00;101224.72;5068788;28;20466;-66
2023/03/21 08:49:57;;;;;;;29.15;14.18;;;;;;;7.88;100.00;101223.72;5068851;28;20033;-67
2023/03/21 08:52:23;;;;;;;28.75;13.25;;;;;;;7.88;100.00;101220.16;5070053;28;20036;-66
2023/03/21 08:54:48;;;;;;;29.77;14.13;;;;;;;7.94;100.00;101223.81;5065726;28;20021;-69
2023/03/21 08:57:14;;;;;;;30.45;14.85;;;;;;;8.06;100.00;101217.94;5065035;28;20033;-69
2023/03/21 08:59:39;;;;;;;29.92;14.88;;;;;;;8.08;100.00;101212.69;5069491;28;20040;-70
2023/03/21 09:02:06;;;;;;;29.25;14.32;;;;;;;8.11;100.00;101202.22;5067951;28;20123;-69
2023/03/21 09:04:31;;;;;;;29.63;14.05;;;;;;;8.10;100.00;101200.47;5072466;28;20028;-69
2023/03/21 09:07:00;;;;;;;31.25;14.60;;;;;;;8.20;100.00;101215.59;5072326;28;20035;-69
2023/03/21 09:09:26;;;;;;;30.38;14.70;;;;;;;8.24;100.00;101208.63;5071067;28;20032;-69
2023/03/21 09:11:52;;;;;;;31.75;15.25;;;;;;;8.28;100.00;101206.06;5071142;28;20055;-69
2023/03/21 09:14:17;;;;;;;28.30;14.38;;;;;;;8.32;100.00;101207.03;5070743;28;20546;-70
2023/03/21 09:16:43;;;;;;;29.63;14.57;;;;;;;8.29;100.00;101206.97;5071227;28;20379;-69
2023/03/21 09:19:08;;;;;;;28.20;13.55;;;;;;;8.29;100.00;101194.69;5072345;28;20039;-70
2023/03/21 09:21:34;;;;;;;30.33;14.40;;;;;;;8.32;100.00;101204.41;5074356;28;20039;-70
2023/03/21 09:24:01;;;;;;;29.52;13.40;;;;;;;8.29;100.00;101202.59;5075134;28;20031;-70
2023/03/21 09:26:27;;;;;;;27.88;13.15;;;;;;;8.33;100.00;101204.44;5076152;28;20033;-70
2023/03/21 09:28:54;;;;;;;26.55;13.63;;;;;;;8.35;100.00;101200.06;5076136;28;20029;-70
2023/03/21 09:31:21;;;;;;;27.30;13.68;;;;;;;8.47;100.00;101196.81;5076321;28;20028;-70
2023/03/21 09:33:48;;;;;;;25.90;12.80;;;;;;;8.50;100.00;101195.97;5074768;28;20021;-70
2023/03/21 09:36:14;;;;;;;26.92;12.77;;;;;;;8.58;100.00;101186.47;5072115;28;20029;-70
2023/03/21 09:38:43;;;;;;;26.63;12.38;;;;;;;8.60;100.00;101189.13;5076123;28;20035;-70
2023/03/21 09:41:30;;;;;;;25.70;11.18;;;;;;;8.57;100.00;101189.97;5076084;28;20111;-70
2023/03/21 09:44:16;;;;;;;25.42;11.73;;;;;;;8.61;100.00;101186.53;5073796;28;20063;-70
2023/03/21 09:47:09;;;;;;;25.02;11.80;;;;;;;8.69;100.00;101190.19;5075857;28;20112;-70
2023/03/21 09:49:42;;;;;;;26.10;10.60;;;;;;;8.76;100.00;101177.13;5074821;28;20029;-70
2023/03/21 09:52:19;;;;;;;23.48;9.80;;;;;;;8.97;100.00;101182.75;5075895;28;20029;-70
2023/03/21 09:54:45;;;;;;;23.90;9.50;;;;;;;9.04;100.00;101175.81;5071902;28;20028;-71
2023/03/21 09:57:23;;;;;;;24.45;9.23;;;;;;;9.08;100.00;101173.25;5075597;28;20017;-71
2023/03/21 09:59:52;;;;;;;23.67;9.32;;;;;;;9.23;100.00;101169.97;5072247;28;20025;-70
2023/03/21 10:02:44;;;;;;;24.33;9.10;;;;;;;9.28;100.00;101170.03;5066281;28;20036;-72
2023/03/21 10:05:16;;;;;;;22.23;8.50;;;;;;;9.41;100.00;101163.19;5074494;28;20036;-69
2023/03/21 10:07:47;;;;;;;24.20;9.07;;;;;;;9.42;100.00;101157.03;5070893;28;20052;-68
2023/03/21 10:10:17;;;;;;;22.20;7.95;;;;;;;9.52;100.00;101156.31;5073414;28;20509;-70
2023/03/21 10:12:44;;;;;;;21.23;8.48;;;;;;;9.59;100.00;101157.28;5067593;28;20131;-70
2023/03/21 10:15:15;;;;;;;22.73;8.80;;;;;;;9.65;100.00;101152.06;5073101;28;20051;-70
2023/03/21 10:17:50;;;;;;;21.83;8.40;;;;;;;9.72;100.00;101147.75;5076576;28;20021;-69
2023/03/21 10:20:21;;;;;;;21.73;8.95;;;;;;;9.75;100.00;101142.50;5077602;28;20036;-69
2023/03/21 10:22:49;;;;;;;22.20;8.30;;;;;;;9.95;100.00;101148.03;5066733;28;20020;-67
2023/03/21 10:25:23;;;;;;;21.27;8.18;;;;;;;10.05;100.00;101151.69;5070899;28;20068;-69
2023/03/21 10:27:51;;;;;;;22.73;8.13;;;;;;;10.05;100.00;101147.28;5072608;28;20020;-71
2023/03/21 10:30:53;;;;;;;21.50;8.07;;;;;;;10.03;100.00;101154.31;5075868;28;20036;-73
2023/03/21 10:33:33;;;;;;;21.08;7.60;;;;;;;10.11;100.00;101142.06;5069936;28;20487;-72
2023/03/21 10:36:01;;;;;;;22.70;7.82;;;;;;;10.21;100.00;101147.47;5064427;28;20028;-70
2023/03/21 10:38:27;;;;;;;21.88;7.78;;;;;;;10.32;100.00;101135.22;5070657;28;20082;-70
2023/03/21 10:40:53;;;;;;;21.80;7.63;;;;;;;10.34;100.00;101141.47;5072674;28;20475;-70
2023/03/21 10:43:24;;;;;;;20.83;7.40;;;;;;;10.42;100.00;101141.53;5069932;28;20107;-73
2023/03/21 10:45:50;;;;;;;21.30;7.30;;;;;;;10.39;100.00;101146.78;5066462;28;20111;-69
2023/03/21 10:48:16;;;;;;;20.75;7.07;;;;;;;10.46;100.00;101144.22;5065179;28;20119;-70
2023/03/21 10:50:45;;;;;;;21.00;7.50;;;;;;;10.51;100.00;101143.38;5068552;28;20028;-69
2023/03/21 10:53:30;;;;;;;20.52;7.20;;;;;;;10.44;100.00;101156.53;5073582;28;20028;-69
2023/03/21 10:55:59;;;;;;;20.50;7.05;;;;;;;10.43;100.00;101154.75;5066603;28;20107;-69
2023/03/21 10:58:32;;;;;;;21.73;6.95;;;;;;;10.54;100.00;101141.66;5073951;28;20047;-70
2023/03/21 11:01:01;;;;;;;21.25;7.18;;;;;;;10.71;100.00;101139.13;5068844;28;20021;-70
2023/03/21 11:03:31;;;;;;;20.92;6.68;;;;;;;11.21;100.00;101142.16;5065438;28;20507;-70
2023/03/21 11:06:04;;;;;;;21.67;7.20;;;;;;;11.43;100.00;101130.84;5072466;28;20046;-71
2023/03/21 11:08:29;;;;;;;19.85;6.80;;;;;;;11.38;100.00;101135.22;5077146;28;20081;-71
2023/03/21 11:11:07;;;;;;;19.25;6.25;;;;;;;11.26;100.00;101136.03;5069704;28;20032;-70
2023/03/21 11:13:39;;;;;;;19.80;6.50;;;;;;;11.22;100.00;101128.06;5069413;28;20041;-71
2023/03/21 11:16:21;;;;;;;19.98;6.20;;;;;;;11.18;100.00;101129.78;5071019;28;20495;-71
2023/03/21 11:18:51;;;;;;;18.90;5.90;;;;;;;11.25;100.00;101125.44;5068447;28;20020;-71
2023/03/21 11:21:17;;;;;;;19.35;6.38;;;;;;;11.22;100.00;101142.16;5071444;28;20055;-71